createdAt,value
2018-03-22T00:02:26.052Z,3.90
2018-03-22T00:04:53.624Z,3.90
2018-03-22T00:07:21.146Z,3.90
2018-03-22T00:09:48.673Z,4.00
2018-03-22T00:12:16.203Z,4.00
2018-03-22T00:14:43.748Z,4.00
2018-03-22T00:17:12.069Z,4.00
2018-03-22T00:19:39.587Z,4.00
2018-03-22T00:22:07.873Z,4.10
2018-03-22T00:24:35.400Z,4.10
2018-03-22T00:27:03.007Z,4.10
2018-03-22T00:29:30.548Z,4.10
2018-03-22T00:31:58.078Z,4.20
2018-03-22T00:34:25.648Z,4.20
2018-03-22T00:36:53.154Z,4.10
2018-03-22T00:39:20.779Z,4.10
2018-03-22T00:41:48.315Z,4.20
2018-03-22T00:44:15.836Z,4.20
2018-03-22T00:46:43.361Z,4.20
2018-03-22T00:49:10.882Z,4.20
2018-03-22T00:51:38.396Z,4.20
2018-03-22T00:54:06.676Z,4.30
2018-03-22T00:56:34.267Z,4.30
2018-03-22T00:59:01.792Z,4.30
2018-03-22T01:01:30.076Z,4.30
2018-03-22T01:03:58.364Z,4.30
2018-03-22T01:06:25.884Z,4.30
2018-03-22T01:08:53.431Z,4.30
2018-03-22T01:11:20.951Z,4.30
2018-03-22T01:13:48.589Z,4.30
2018-03-22T01:16:16.900Z,4.30
2018-03-22T01:18:44.453Z,4.30
2018-03-22T01:21:12.004Z,4.40
2018-03-22T01:23:39.523Z,4.30
2018-03-22T01:26:07.061Z,4.30
2018-03-22T01:28:35.413Z,4.30
2018-03-22T01:31:02.926Z,4.30
2018-03-22T01:33:30.448Z,4.40
2018-03-22T01:35:57.974Z,4.40
2018-03-22T01:38:25.478Z,4.40
2018-03-22T01:40:52.995Z,4.30
2018-03-22T01:43:20.519Z,4.40
2018-03-22T01:45:48.620Z,4.30
2018-03-22T01:48:16.911Z,4.30
2018-03-22T01:50:44.422Z,4.30
2018-03-22T01:53:13.899Z,4.20
2018-03-22T01:55:41.423Z,4.20
2018-03-22T01:58:08.943Z,4.20
2018-03-22T02:00:36.472Z,4.20
2018-03-22T02:03:03.993Z,4.20
2018-03-22T02:05:31.521Z,4.20
2018-03-22T02:07:59.031Z,4.30
2018-03-22T02:10:26.571Z,4.30
2018-03-22T02:12:54.104Z,4.30
2018-03-22T02:15:21.610Z,4.30
2018-03-22T02:17:49.891Z,4.30
2018-03-22T02:20:18.179Z,4.20
2018-03-22T02:22:45.701Z,4.20
2018-03-22T02:25:13.223Z,4.30
2018-03-22T02:27:40.760Z,4.30
2018-03-22T02:30:08.284Z,4.30
2018-03-22T02:32:35.812Z,4.30
2018-03-22T02:35:03.424Z,4.30
2018-03-22T02:37:31.001Z,4.30
2018-03-22T02:39:58.515Z,4.30
2018-03-22T02:42:26.062Z,4.30
2018-03-22T02:44:53.597Z,4.30
2018-03-22T02:47:21.112Z,4.30
2018-03-22T02:49:48.636Z,4.30
2018-03-22T02:52:16.157Z,4.30
2018-03-22T02:54:44.441Z,4.30
2018-03-22T02:57:11.995Z,4.30
2018-03-22T02:59:40.310Z,4.30
2018-03-22T03:02:07.828Z,4.20
2018-03-22T03:04:36.128Z,4.20
2018-03-22T03:07:03.643Z,4.30
2018-03-22T03:09:31.203Z,4.30
2018-03-22T03:11:58.735Z,4.30
2018-03-22T03:14:26.258Z,4.30
2018-03-22T03:16:53.808Z,4.30
2018-03-22T03:19:22.086Z,4.40
2018-03-22T03:21:49.603Z,4.40
2018-03-22T03:24:17.121Z,4.30
2018-03-22T03:26:45.408Z,4.40
2018-03-22T03:29:12.928Z,4.30
2018-03-22T03:31:40.441Z,4.40
2018-03-22T03:34:07.976Z,4.30
2018-03-22T03:36:35.503Z,4.30
2018-03-22T03:39:03.027Z,4.40
2018-03-22T03:41:30.658Z,4.40
2018-03-22T03:43:58.227Z,4.40
2018-03-22T03:46:25.748Z,4.40
2018-03-22T03:48:53.290Z,4.50
2018-03-22T03:51:21.016Z,4.50
2018-03-22T03:53:48.547Z,4.50
2018-03-22T03:56:16.092Z,4.50
2018-03-22T03:58:43.619Z,4.60
2018-03-22T04:01:11.140Z,4.50
2018-03-22T04:03:38.689Z,4.50
2018-03-22T04:06:07.044Z,4.60
2018-03-22T04:08:34.572Z,4.50
2018-03-22T04:11:02.091Z,4.60
2018-03-22T04:13:29.629Z,4.60
2018-03-22T04:15:57.160Z,4.60
2018-03-22T04:18:24.678Z,4.60
2018-03-22T04:20:52.196Z,4.60
2018-03-22T04:23:19.711Z,4.70
2018-03-22T04:25:47.243Z,4.60
2018-03-22T04:28:14.791Z,4.70
2018-03-22T04:30:42.805Z,4.70
2018-03-22T04:33:10.352Z,4.70
2018-03-22T04:35:37.881Z,4.70
2018-03-22T04:38:05.423Z,4.70
2018-03-22T04:40:33.003Z,4.70
2018-03-22T04:43:00.526Z,4.70
2018-03-22T04:45:28.095Z,4.70
2018-03-22T04:47:55.610Z,4.60
2018-03-22T04:50:23.901Z,4.50
2018-03-22T04:52:51.424Z,4.50
2018-03-22T04:55:18.950Z,4.50
2018-03-22T04:57:46.947Z,4.40
2018-03-22T05:00:14.477Z,4.40
2018-03-22T05:02:42.715Z,4.30
2018-03-22T05:05:10.711Z,4.30
2018-03-22T05:07:38.237Z,4.30
2018-03-22T05:10:05.757Z,4.20
2018-03-22T05:12:33.284Z,4.20
2018-03-22T05:15:01.562Z,4.10
2018-03-22T05:17:30.012Z,4.10
2018-03-22T05:19:57.528Z,4.10
2018-03-22T05:22:25.047Z,4.00
2018-03-22T05:24:52.642Z,4.10
2018-03-22T05:27:20.159Z,4.10
2018-03-22T05:29:47.680Z,4.10
2018-03-22T05:32:15.239Z,4.00
2018-03-22T05:34:42.765Z,4.10
2018-03-22T05:37:10.308Z,4.10
2018-03-22T05:39:38.595Z,4.10
2018-03-22T05:42:06.730Z,4.10
2018-03-22T05:44:34.265Z,4.10
2018-03-22T05:47:01.830Z,4.10
2018-03-22T05:49:29.355Z,4.10
2018-03-22T05:51:56.874Z,4.00
2018-03-22T05:54:24.391Z,4.00
2018-03-22T05:56:51.898Z,4.00
2018-03-22T05:59:19.443Z,4.00
2018-03-22T06:01:46.953Z,4.10
2018-03-22T06:04:14.480Z,4.10
2018-03-22T06:06:41.990Z,4.00
2018-03-22T06:09:09.505Z,4.00
2018-03-22T06:11:37.073Z,4.00
2018-03-22T06:14:05.193Z,3.90
2018-03-22T06:16:32.757Z,3.90
2018-03-22T06:19:00.304Z,4.00
2018-03-22T06:21:29.108Z,4.00
2018-03-22T06:23:56.630Z,3.90
2018-03-22T06:26:24.920Z,3.90
2018-03-22T06:28:52.443Z,3.90
2018-03-22T06:31:19.974Z,4.00
2018-03-22T06:33:47.511Z,4.00
2018-03-22T06:36:15.027Z,3.90
2018-03-22T06:38:42.565Z,4.00
2018-03-22T06:41:10.120Z,4.00
2018-03-22T06:43:37.632Z,4.10
2018-03-22T06:46:06.536Z,4.10
2018-03-22T06:48:34.812Z,4.00
2018-03-22T06:51:02.343Z,4.00
2018-03-22T06:53:29.899Z,4.00
2018-03-22T06:55:57.415Z,4.10
2018-03-22T06:58:24.949Z,4.10
2018-03-22T07:00:52.520Z,4.10
2018-03-22T07:03:20.043Z,4.10
2018-03-22T07:05:47.572Z,4.20
2018-03-22T07:08:15.083Z,4.20
2018-03-22T07:10:42.602Z,4.20
2018-03-22T07:13:10.999Z,4.30
2018-03-22T07:15:38.567Z,4.30
2018-03-22T07:18:06.089Z,4.40
2018-03-22T07:20:33.610Z,4.30
2018-03-22T07:23:01.147Z,4.40
2018-03-22T07:25:28.693Z,4.40
2018-03-22T07:27:56.232Z,4.40
2018-03-22T07:30:23.748Z,4.40
2018-03-22T07:32:51.272Z,4.50
2018-03-22T07:35:18.799Z,4.40
2018-03-22T07:37:46.323Z,4.50
2018-03-22T07:40:13.848Z,4.50
2018-03-22T07:42:41.368Z,4.50
2018-03-22T07:45:09.814Z,4.50
2018-03-22T07:47:37.296Z,4.60
2018-03-22T07:50:05.616Z,4.70
2018-03-22T07:52:33.130Z,4.60
2018-03-22T07:55:01.423Z,4.70
2018-03-22T07:57:28.983Z,4.70
2018-03-22T07:59:56.634Z,4.80
2018-03-22T08:02:24.188Z,4.70
2018-03-22T08:04:52.476Z,4.70
2018-03-22T08:07:20.031Z,4.70
2018-03-22T08:09:48.307Z,4.80
2018-03-22T08:12:15.844Z,4.80
2018-03-22T08:14:43.376Z,4.80
2018-03-22T08:17:10.904Z,4.80
2018-03-22T08:19:38.429Z,4.80
2018-03-22T08:22:05.950Z,4.80
2018-03-22T08:24:33.475Z,4.80
2018-03-22T08:27:01.783Z,4.90
2018-03-22T08:29:29.320Z,4.90
2018-03-22T08:31:57.621Z,4.90
2018-03-22T08:34:25.140Z,4.90
2018-03-22T08:36:53.435Z,5.00
2018-03-22T08:39:20.962Z,4.90
2018-03-22T08:41:48.586Z,5.00
2018-03-22T08:44:16.112Z,5.10
2018-03-22T08:46:43.631Z,5.10
2018-03-22T08:49:11.157Z,5.10
2018-03-22T08:51:38.679Z,5.20
2018-03-22T08:54:06.189Z,5.20
2018-03-22T08:56:33.710Z,5.20
2018-03-22T08:59:01.231Z,5.20
2018-03-22T09:01:28.761Z,5.30
2018-03-22T09:03:56.283Z,5.30
2018-03-22T09:06:23.823Z,5.30
2018-03-22T09:08:51.345Z,5.30
2018-03-22T09:11:18.866Z,5.40
2018-03-22T09:13:47.153Z,5.40
2018-03-22T09:16:14.677Z,5.40
2018-03-22T09:18:42.223Z,5.50
2018-03-22T09:21:09.751Z,5.50
2018-03-22T09:23:37.267Z,5.60
2018-03-22T09:26:04.780Z,5.60
2018-03-22T09:28:32.314Z,5.60
2018-03-22T09:31:00.645Z,5.70
2018-03-22T09:33:28.159Z,5.60
2018-03-22T09:35:55.696Z,5.70
2018-03-22T09:38:23.205Z,5.80
2018-03-22T09:40:50.721Z,5.80
2018-03-22T09:43:18.243Z,5.80
2018-03-22T09:45:45.751Z,5.80
2018-03-22T09:48:14.064Z,5.90
2018-03-22T09:50:41.559Z,5.90
2018-03-22T09:53:09.112Z,6.00
2018-03-22T09:55:36.668Z,6.00
2018-03-22T09:58:04.184Z,6.00
2018-03-22T10:00:31.705Z,6.00
2018-03-22T10:02:59.223Z,6.00
2018-03-22T10:05:26.740Z,6.10
2018-03-22T10:07:54.250Z,6.10
2018-03-22T10:10:21.774Z,6.20
2018-03-22T10:12:49.298Z,6.20
2018-03-22T10:15:16.817Z,6.20
2018-03-22T10:17:44.324Z,6.20
2018-03-22T10:20:11.859Z,6.20
2018-03-22T10:22:39.403Z,6.30
2018-03-22T10:25:06.917Z,6.30
2018-03-22T10:27:35.198Z,6.30
2018-03-22T10:30:02.724Z,6.30
2018-03-22T10:32:30.234Z,6.30
2018-03-22T10:34:58.507Z,6.40
2018-03-22T10:37:26.019Z,6.40
2018-03-22T10:39:53.547Z,6.40
2018-03-22T10:42:21.056Z,6.50
2018-03-22T10:44:48.573Z,6.50
2018-03-22T10:47:16.304Z,6.50
2018-03-22T10:49:43.840Z,6.50
2018-03-22T10:52:11.359Z,6.50
2018-03-22T10:54:38.885Z,6.60
2018-03-22T10:57:07.164Z,6.60
2018-03-22T10:59:34.726Z,6.50
2018-03-22T11:02:03.008Z,6.60
2018-03-22T11:04:30.537Z,6.60
2018-03-22T11:06:58.067Z,6.60
2018-03-22T11:09:25.572Z,6.60
2018-03-22T11:11:53.097Z,6.60
2018-03-22T11:14:20.608Z,6.60
2018-03-22T11:16:48.199Z,6.60
2018-03-22T11:19:15.715Z,6.60
2018-03-22T11:21:43.250Z,6.70
2018-03-22T11:24:10.784Z,6.70
2018-03-22T11:26:38.316Z,6.70
2018-03-22T11:29:06.644Z,6.70
2018-03-22T11:31:34.184Z,6.70
2018-03-22T11:34:01.709Z,6.80
2018-03-22T11:36:29.236Z,6.80
2018-03-22T11:38:56.766Z,6.80
2018-03-22T11:41:24.284Z,6.80
2018-03-22T11:43:52.579Z,6.80
2018-03-22T11:46:20.112Z,6.80
2018-03-22T11:48:48.395Z,6.80
2018-03-22T11:51:15.923Z,6.80
2018-03-22T11:53:43.479Z,6.80
2018-03-22T11:56:10.995Z,6.80
2018-03-22T11:58:38.572Z,6.90
2018-03-22T12:01:06.120Z,7.00
2018-03-22T12:03:33.662Z,7.00
2018-03-22T12:06:01.191Z,7.10
2018-03-22T12:08:28.775Z,7.10
2018-03-22T12:10:56.300Z,7.10
2018-03-22T12:13:23.830Z,7.20
2018-03-22T12:15:51.356Z,7.20
2018-03-22T12:18:18.889Z,7.20
2018-03-22T12:20:46.417Z,7.20
2018-03-22T12:23:13.956Z,7.40
2018-03-22T12:25:41.483Z,7.60
2018-03-22T12:28:09.016Z,7.70
2018-03-22T12:30:36.543Z,7.70
2018-03-22T12:33:04.084Z,7.60
2018-03-22T12:35:32.372Z,7.60
2018-03-22T12:38:00.680Z,7.60
2018-03-22T12:40:28.204Z,7.60
2018-03-22T12:42:56.563Z,7.70
2018-03-22T12:45:24.089Z,7.70
2018-03-22T12:47:51.647Z,7.70
2018-03-22T12:50:19.190Z,7.80
2018-03-22T12:52:46.719Z,7.80
2018-03-22T12:55:15.025Z,7.80
2018-03-22T12:57:42.555Z,7.70
2018-03-22T13:00:10.842Z,7.70
2018-03-22T13:02:38.405Z,7.70
2018-03-22T13:05:06.763Z,7.70
2018-03-22T13:07:34.335Z,7.70
2018-03-22T13:10:01.906Z,8.20
2018-03-22T13:12:29.441Z,8.90
2018-03-22T13:14:56.959Z,9.60
2018-03-22T13:17:24.480Z,10.20
2018-03-22T13:19:52.007Z,10.20
2018-03-22T13:22:19.534Z,9.90
2018-03-22T13:24:47.064Z,9.70
2018-03-22T13:27:15.370Z,9.70
2018-03-22T13:29:42.894Z,9.60
2018-03-22T13:32:11.196Z,9.30
2018-03-22T13:34:38.850Z,9.20
2018-03-22T13:37:06.378Z,9.10
2018-03-22T13:39:33.903Z,9.00
2018-03-22T13:42:01.476Z,9.00
2018-03-22T13:44:28.988Z,8.90
2018-03-22T13:46:56.522Z,8.80
2018-03-22T13:49:24.653Z,8.80
2018-03-22T13:51:52.171Z,8.80
2018-03-22T13:54:20.468Z,8.80
2018-03-22T13:56:47.999Z,8.70
2018-03-22T13:59:15.519Z,8.70
2018-03-22T14:01:43.029Z,8.80
2018-03-22T14:04:10.564Z,8.80
2018-03-22T14:06:38.087Z,8.80
2018-03-22T14:09:05.609Z,8.70
2018-03-22T14:11:33.893Z,8.80
2018-03-22T14:14:01.461Z,8.70
2018-03-22T14:16:29.763Z,8.70
2018-03-22T14:18:58.116Z,8.70
2018-03-22T14:21:26.434Z,8.70
2018-03-22T14:23:54.241Z,8.70
2018-03-22T14:26:21.797Z,8.80
2018-03-22T14:28:49.323Z,8.80
2018-03-22T14:31:16.902Z,8.80
2018-03-22T14:33:44.414Z,8.90
2018-03-22T14:36:11.931Z,8.80
2018-03-22T14:38:39.492Z,8.80
2018-03-22T14:41:06.972Z,8.80
2018-03-22T14:43:34.478Z,8.70
2018-03-22T14:46:02.093Z,8.70
2018-03-22T14:48:30.383Z,8.70
2018-03-22T14:50:57.922Z,8.70
2018-03-22T14:53:25.443Z,8.70
2018-03-22T14:55:52.966Z,8.70
2018-03-22T14:58:20.508Z,8.70
2018-03-22T15:00:48.033Z,8.70
2018-03-22T15:03:15.547Z,8.80
2018-03-22T15:05:43.819Z,8.70
2018-03-22T15:08:11.344Z,8.70
2018-03-22T15:10:38.871Z,8.70
2018-03-22T15:13:06.412Z,8.70
2018-03-22T15:15:33.931Z,8.70
2018-03-22T15:18:02.440Z,8.70
2018-03-22T15:20:30.731Z,8.60
2018-03-22T15:22:58.333Z,8.60
2018-03-22T15:25:25.864Z,8.60
2018-03-22T15:27:53.392Z,8.60
2018-03-22T15:30:20.917Z,8.60
2018-03-22T15:32:48.498Z,8.50
2018-03-22T15:35:16.005Z,8.50
2018-03-22T15:37:43.520Z,8.50
2018-03-22T15:40:11.047Z,8.50
2018-03-22T15:42:38.608Z,8.50
2018-03-22T15:45:06.112Z,8.50
2018-03-22T15:47:33.668Z,8.50
2018-03-22T15:50:01.190Z,8.50
2018-03-22T15:52:28.700Z,8.50
2018-03-22T15:54:57.000Z,8.50
2018-03-22T15:57:24.523Z,8.50
2018-03-22T15:59:52.039Z,8.50
2018-03-22T16:02:19.597Z,8.50
2018-03-22T16:04:47.116Z,8.50
2018-03-22T16:07:15.361Z,8.50
2018-03-22T16:09:42.899Z,8.50
2018-03-22T16:12:10.424Z,8.50
2018-03-22T16:14:37.956Z,8.50
2018-03-22T16:17:05.537Z,8.40
2018-03-22T16:19:33.076Z,8.50
2018-03-22T16:22:00.614Z,8.50
2018-03-22T16:24:28.199Z,8.50
2018-03-22T16:26:55.704Z,8.50
2018-03-22T16:29:23.211Z,8.60
2018-03-22T16:31:50.805Z,8.60
2018-03-22T16:34:19.134Z,8.60
2018-03-22T16:36:46.674Z,8.70
2018-03-22T16:39:14.193Z,8.70
2018-03-22T16:41:41.712Z,8.70
2018-03-22T16:44:09.243Z,8.80
2018-03-22T16:46:36.760Z,8.70
2018-03-22T16:49:04.280Z,8.70
2018-03-22T16:51:31.827Z,8.70
2018-03-22T16:53:59.352Z,8.60
2018-03-22T16:56:26.923Z,9.30
2018-03-22T16:58:55.231Z,8.80
2018-03-22T17:01:22.775Z,8.80
2018-03-22T17:03:51.104Z,8.60
2018-03-22T17:06:18.619Z,8.60
2018-03-22T17:08:46.352Z,8.50
2018-03-22T17:11:14.258Z,8.50
2018-03-22T17:13:42.108Z,8.50
2018-03-22T17:16:09.707Z,8.50
2018-03-22T17:18:37.236Z,8.40
2018-03-22T17:21:04.763Z,8.50
2018-03-22T17:23:33.767Z,8.50
2018-03-22T17:26:01.735Z,8.50
2018-03-22T17:28:29.719Z,8.40
2018-03-22T17:30:58.023Z,8.50
2018-03-22T17:33:25.543Z,8.40
2018-03-22T17:35:53.116Z,8.40
2018-03-22T17:38:20.728Z,8.40
2018-03-22T17:40:48.264Z,8.40
2018-03-22T17:43:15.792Z,8.30
2018-03-22T17:45:43.314Z,8.20
2018-03-22T17:48:10.832Z,8.20
2018-03-22T17:50:38.396Z,8.10
2018-03-22T17:53:06.689Z,8.10
2018-03-22T17:55:34.206Z,8.10
2018-03-22T17:58:02.119Z,8.00
2018-03-22T18:00:29.639Z,8.10
2018-03-22T18:02:57.228Z,8.00
2018-03-22T18:05:24.764Z,8.00
2018-03-22T18:07:52.274Z,7.90
2018-03-22T18:10:19.809Z,7.90
2018-03-22T18:12:47.340Z,7.90
2018-03-22T18:15:14.879Z,7.90
2018-03-22T18:17:42.417Z,7.90
2018-03-22T18:20:09.954Z,7.90
2018-03-22T18:22:37.492Z,7.90
2018-03-22T18:25:05.015Z,7.90
2018-03-22T18:27:32.527Z,7.90
2018-03-22T18:30:00.812Z,7.90
2018-03-22T18:32:29.119Z,7.90
2018-03-22T18:34:56.841Z,7.90
2018-03-22T18:37:24.367Z,7.90
2018-03-22T18:39:51.916Z,7.80
2018-03-22T18:42:19.432Z,7.80
2018-03-22T18:44:46.956Z,7.80
2018-03-22T18:47:14.500Z,7.80
2018-03-22T18:49:42.066Z,7.80
2018-03-22T18:52:09.602Z,7.70
2018-03-22T18:54:37.145Z,7.70
2018-03-22T18:57:04.673Z,7.70
2018-03-22T18:59:32.193Z,7.70
2018-03-22T19:01:59.752Z,7.70
2018-03-22T19:04:27.304Z,7.70
2018-03-22T19:06:54.827Z,7.80
2018-03-22T19:09:23.188Z,7.70
2018-03-22T19:11:50.715Z,7.70
2018-03-22T19:14:18.240Z,7.70
2018-03-22T19:16:46.531Z,7.70
2018-03-22T19:19:14.054Z,7.70
2018-03-22T19:21:41.642Z,7.70
2018-03-22T19:24:09.143Z,7.70
2018-03-22T19:26:36.658Z,7.60
2018-03-22T19:29:04.717Z,7.60
2018-03-22T19:31:33.052Z,7.60
2018-03-22T19:34:00.687Z,7.60
2018-03-22T19:36:28.333Z,7.70
2018-03-22T19:38:57.616Z,7.60
2018-03-22T19:41:25.164Z,7.70
2018-03-22T19:43:52.701Z,7.60
2018-03-22T19:46:20.327Z,7.60
2018-03-22T19:48:47.947Z,7.60
2018-03-22T19:51:15.519Z,7.60
2018-03-22T19:53:43.147Z,7.60
2018-03-22T19:56:10.704Z,7.60
2018-03-22T19:58:38.887Z,7.50
2018-03-22T20:01:06.413Z,7.50
2018-03-22T20:03:33.931Z,7.40
2018-03-22T20:06:01.519Z,7.50
2018-03-22T20:08:29.832Z,7.50
2018-03-22T20:10:57.357Z,7.50
2018-03-22T20:13:25.752Z,7.50
2018-03-22T20:15:53.283Z,7.50
2018-03-22T20:18:20.808Z,7.50
2018-03-22T20:20:48.328Z,7.50
2018-03-22T20:23:15.874Z,7.50
2018-03-22T20:25:44.168Z,7.50
2018-03-22T20:28:11.680Z,7.50
2018-03-22T20:30:39.209Z,7.40
2018-03-22T20:33:06.743Z,7.50
2018-03-22T20:35:35.027Z,7.50
2018-03-22T20:38:02.568Z,7.50
2018-03-22T20:40:30.099Z,7.60
2018-03-22T20:42:57.662Z,7.50
2018-03-22T20:45:25.175Z,7.50
2018-03-22T20:47:52.695Z,7.40
2018-03-22T20:50:20.260Z,7.40
2018-03-22T20:52:47.843Z,7.30
2018-03-22T20:55:16.136Z,7.40
2018-03-22T20:57:43.676Z,7.40
2018-03-22T21:00:12.211Z,7.40
2018-03-22T21:02:39.952Z,7.40
2018-03-22T21:05:07.487Z,7.30
2018-03-22T21:07:35.021Z,7.40
2018-03-22T21:10:02.593Z,7.40
2018-03-22T21:12:30.128Z,7.40
2018-03-22T21:14:57.681Z,7.40
2018-03-22T21:17:25.803Z,7.40
2018-03-22T21:19:54.132Z,7.30
2018-03-22T21:22:21.692Z,7.20
2018-03-22T21:24:49.209Z,7.30
2018-03-22T21:27:16.740Z,7.30
2018-03-22T21:29:45.444Z,7.30
2018-03-22T21:32:12.982Z,7.30
2018-03-22T21:34:40.522Z,7.30
2018-03-22T21:37:08.071Z,7.30
2018-03-22T21:39:36.123Z,7.30
2018-03-22T21:42:05.580Z,7.30
2018-03-22T21:44:33.107Z,7.20
2018-03-22T21:47:12.368Z,7.20
2018-03-22T21:49:39.891Z,7.20
2018-03-22T21:52:20.514Z,7.10
2018-03-22T21:54:48.040Z,7.20
2018-03-22T21:57:15.613Z,7.30
2018-03-22T21:59:43.149Z,7.10
2018-03-22T22:02:10.723Z,7.10
2018-03-22T22:04:38.244Z,7.10
2018-03-22T22:07:06.571Z,7.10
2018-03-22T22:09:34.112Z,7.10
2018-03-22T22:12:01.645Z,7.10
2018-03-22T22:14:29.196Z,7.00
2018-03-22T22:16:57.164Z,7.00
2018-03-22T22:19:25.051Z,7.10
2018-03-22T22:21:52.613Z,7.00
2018-03-22T22:24:20.132Z,7.00
2018-03-22T22:26:47.673Z,7.10
2018-03-22T22:29:15.191Z,7.10
2018-03-22T22:31:42.720Z,7.00
2018-03-22T22:34:10.238Z,7.10
2018-03-22T22:36:37.773Z,7.00
2018-03-22T22:39:05.303Z,7.10
2018-03-22T22:41:32.852Z,7.00
2018-03-22T22:44:00.382Z,7.10
2018-03-22T22:46:27.912Z,7.10
2018-03-22T22:48:55.445Z,7.10
2018-03-22T22:51:22.970Z,7.10
2018-03-22T22:53:50.508Z,7.10
2018-03-22T22:56:18.020Z,7.00
2018-03-22T22:58:45.553Z,7.00
2018-03-22T23:01:13.081Z,7.00
2018-03-22T23:03:40.626Z,6.90
2018-03-22T23:06:08.920Z,7.00
2018-03-22T23:08:36.456Z,7.00
2018-03-22T23:11:04.637Z,7.00
2018-03-22T23:13:32.166Z,6.90
2018-03-22T23:15:59.734Z,7.00
2018-03-22T23:18:27.238Z,6.90
2018-03-22T23:20:54.779Z,6.90
2018-03-22T23:23:22.912Z,6.90
2018-03-22T23:25:50.442Z,6.90
2018-03-22T23:28:17.956Z,7.00
2018-03-22T23:30:45.483Z,7.00
2018-03-22T23:33:13.002Z,7.00
2018-03-22T23:35:40.535Z,6.90
2018-03-22T23:38:08.118Z,6.90
2018-03-22T23:40:36.441Z,6.90
2018-03-22T23:43:03.980Z,6.90
2018-03-22T23:45:31.512Z,6.90
2018-03-22T23:47:59.055Z,6.90
2018-03-22T23:50:26.625Z,6.90
2018-03-22T23:52:54.143Z,6.80
2018-03-22T23:55:21.662Z,6.80
2018-03-22T23:57:49.183Z,6.90
